首页
METAR-TAF:

METAR-TAF

机场 :

尼亞美, 尼日尔

迪奥里·哈马尼国际机场

纬度: 13-29N, 经度: 002-10E, 海拔: 223米

当前天气观测

该预报发布于1小时和13分钟前的17:00 UTC
风速4节,风向西,在西南西转西北之间变化
温度 43°C
湿度 8%
气压 1005 hPa
能見度: 8000

METAR: DRRN 241700Z 27004KT 230V300 8000 NSC 43/02 Q1005 NOSIG

时间: 19:13 (18:13 UTC)

预报

该预报发布于1小时和13分钟前的17:00 UTC
预报有效从24日的 18点(UTC)到 25日的 24点(UTC)
风速6节,风向西
能見度: 8000
短暂存在
从 24日的 18点(UTC)到 24日的 21点(UTC)
能見度: 4000
浮尘
几率 40% :
短暂存在
从 25日的 15点(UTC)到 25日的 20点(UTC)
风速25节,风向多变
能見度: 1500
少量云层高于4000英尺, 积雨云.
高吹尘, 雷暴

TAF: DRRN 241700Z 2418/2524 28006KT 8000 NSC TEMPO 2418/2421 4000 DU PROB40 TEMPO 2515/2520 VRB25KT 1500 BLDU TS FEW040CB

超过4000个机场的气象观测和天气预报(METAR&TAF报告)。

可查询的气象台以黄色和红色小点在地图上表示。

将鼠标移到小点上方,可查看气象台名称。

然后点击查看天气观测和预报。

如需切换地图:点击带黑十字的绿色按钮放大地图;点击带横线的绿色按钮缩小地图;或者点击绿色箭头查看邻近地区的地图。


METAR-TAF: